Time;durP1;ratioP1;P1;durP2;ratioP2;P2;SDS_P1;SDS_P2;PMS_P1;PMS_P2;Temp;Humidity;BMP_temperature;BMP_pressure;BME280_temperature;BME280_humidity;BME280_pressure;Samples;Min_cycle;Max_cycle;Signal;HPM_P1;HPM_P2
2021/01/07 00:02:07;;;;;;;19.70;11.65;;;2.30;99.90;;;;;;5042787;28;20045;-81
2021/01/07 00:04:33;;;;;;;19.10;11.70;;;2.30;99.90;;;;;;5053788;28;20033;-81
2021/01/07 00:06:59;;;;;;;20.83;11.57;;;2.30;99.90;;;;;;5062170;28;20033;-81
2021/01/07 00:09:25;;;;;;;19.55;10.55;;;2.40;99.90;;;;;;5060126;28;20040;-81
2021/01/07 00:11:52;;;;;;;18.98;10.10;;;2.50;99.90;;;;;;5082136;28;20037;-80
2021/01/07 00:14:19;;;;;;;17.70;8.82;;;2.40;99.90;;;;;;5052972;28;20040;-82
2021/01/07 00:16:45;;;;;;;16.58;9.95;;;2.40;99.90;;;;;;5037456;28;20489;-81
2021/01/07 00:19:11;;;;;;;20.08;10.60;;;2.50;99.90;;;;;;5050685;28;20389;-81
2021/01/07 00:21:37;;;;;;;18.20;9.50;;;2.40;99.90;;;;;;5052794;28;20183;-82
2021/01/07 00:24:04;;;;;;;20.02;10.73;;;2.50;99.90;;;;;;5052668;28;20029;-80
2021/01/07 00:26:30;;;;;;;17.42;10.63;;;2.60;99.90;;;;;;5034211;28;20044;-80
2021/01/07 00:28:56;;;;;;;17.08;9.50;;;2.70;99.90;;;;;;5033739;28;20052;-82
2021/01/07 00:31:23;;;;;;;18.63;10.75;;;2.70;99.90;;;;;;5034687;28;20394;-81
2021/01/07 00:33:49;;;;;;;17.67;9.60;;;2.70;99.90;;;;;;5061518;28;20374;-81
2021/01/07 00:36:19;;;;;;;18.85;10.23;;;2.70;99.90;;;;;;5053419;28;20041;-81
2021/01/07 00:38:46;;;;;;;16.80;9.70;;;2.70;99.90;;;;;;5035907;28;20052;-80
2021/01/07 00:41:22;;;;;;;20.38;10.80;;;2.70;99.90;;;;;;5059410;28;20055;-81
2021/01/07 00:43:48;;;;;;;18.73;10.55;;;2.70;99.90;;;;;;5063328;28;20032;-80
2021/01/07 00:46:16;;;;;;;18.60;10.80;;;2.70;99.90;;;;;;5017603;28;20048;-82
2021/01/07 00:48:43;;;;;;;19.08;10.88;;;2.60;99.90;;;;;;5056966;28;20043;-80
2021/01/07 00:51:09;;;;;;;19.83;11.40;;;2.60;99.90;;;;;;5044652;28;20048;-81
2021/01/07 00:53:36;;;;;;;17.30;10.00;;;2.60;99.90;;;;;;5016908;28;20041;-81
2021/01/07 00:56:02;;;;;;;16.73;10.38;;;2.60;99.90;;;;;;5033402;28;20048;-81
2021/01/07 00:58:34;;;;;;;17.92;9.82;;;2.60;99.90;;;;;;5032844;28;20367;-81
2021/01/07 01:01:00;;;;;;;20.13;11.02;;;2.60;99.90;;;;;;5033553;28;20067;-81
2021/01/07 01:03:26;;;;;;;18.70;10.60;;;2.70;99.90;;;;;;5050828;28;20029;-81
2021/01/07 01:05:53;;;;;;;21.40;11.30;;;2.70;99.90;;;;;;5033262;28;20052;-81
2021/01/07 01:08:19;;;;;;;15.80;8.95;;;2.70;99.90;;;;;;5050891;28;20029;-82
2021/01/07 01:10:47;;;;;;;17.38;9.95;;;2.70;99.90;;;;;;5039096;28;20041;-81
2021/01/07 01:13:14;;;;;;;18.20;11.02;;;2.70;99.90;;;;;;5047820;28;20048;-81
2021/01/07 01:15:40;;;;;;;16.55;9.77;;;2.60;99.90;;;;;;5043845;28;20373;-81
2021/01/07 01:18:09;;;;;;;19.52;10.77;;;2.60;99.90;;;;;;5063783;28;20036;-81
2021/01/07 01:20:35;;;;;;;17.48;10.25;;;2.60;99.90;;;;;;5064567;28;20048;-81
2021/01/07 01:23:04;;;;;;;18.20;10.05;;;2.60;99.90;;;;;;5065309;28;20029;-81
2021/01/07 01:25:30;;;;;;;18.65;10.63;;;2.60;99.90;;;;;;5036602;28;20055;-82
2021/01/07 01:27:56;;;;;;;19.40;10.40;;;2.60;99.90;;;;;;5055523;28;20025;-81
2021/01/07 01:30:23;;;;;;;19.58;10.60;;;2.60;99.90;;;;;;5036466;28;20028;-81
2021/01/07 01:32:49;;;;;;;18.38;10.32;;;2.50;99.90;;;;;;5037294;28;20493;-81
2021/01/07 01:35:15;;;;;;;23.10;12.45;;;2.50;99.90;;;;;;5037463;28;20477;-81
2021/01/07 01:37:43;;;;;;;19.02;11.32;;;2.50;99.90;;;;;;5045200;28;20033;-81
2021/01/07 01:40:11;;;;;;;24.65;13.13;;;2.40;99.90;;;;;;5057214;28;20048;-81
2021/01/07 01:42:38;;;;;;;23.02;11.95;;;2.40;99.90;;;;;;5072403;28;20044;-81
2021/01/07 01:45:05;;;;;;;25.67;12.10;;;2.40;99.90;;;;;;5076772;28;20040;-80
2021/01/07 01:47:31;;;;;;;20.27;11.23;;;2.40;99.90;;;;;;5082617;28;20039;-81
2021/01/07 01:49:57;;;;;;;22.15;11.95;;;2.40;99.90;;;;;;5074661;28;20035;-81
2021/01/07 01:52:25;;;;;;;18.88;10.10;;;2.40;99.90;;;;;;5083246;28;20462;-81
2021/01/07 01:54:52;;;;;;;21.88;12.18;;;2.40;99.90;;;;;;5074606;28;20036;-81
2021/01/07 01:57:19;;;;;;;18.30;10.68;;;2.40;99.90;;;;;;5074203;28;20033;-83
2021/01/07 01:59:45;;;;;;;23.30;12.45;;;2.40;99.90;;;;;;5073963;28;20037;-80
2021/01/07 02:02:17;;;;;;;19.33;11.45;;;2.30;99.90;;;;;;5072928;28;20063;-81
2021/01/07 02:04:47;;;;;;;18.20;10.32;;;2.30;99.90;;;;;;5074481;28;20051;-80
2021/01/07 02:07:18;;;;;;;20.33;11.38;;;2.30;99.90;;;;;;5079305;28;20052;-81
2021/01/07 02:09:45;;;;;;;22.10;12.05;;;2.30;99.90;;;;;;5072642;28;20060;-81
2021/01/07 02:12:12;;;;;;;17.67;10.55;;;2.20;99.90;;;;;;5072996;28;20036;-81
2021/01/07 02:14:42;;;;;;;20.27;11.77;;;2.20;99.90;;;;;;5072491;28;20029;-81
2021/01/07 02:17:09;;;;;;;18.85;10.38;;;2.30;99.90;;;;;;5073174;28;20037;-81
2021/01/07 02:19:36;;;;;;;20.00;10.52;;;2.30;99.90;;;;;;5081588;28;20032;-81
2021/01/07 02:22:03;;;;;;;20.70;11.90;;;2.20;99.90;;;;;;5076410;28;20036;-81
2021/01/07 02:24:30;;;;;;;19.48;10.93;;;2.20;99.90;;;;;;5073607;28;20378;-81
2021/01/07 02:27:02;;;;;;;19.73;11.48;;;2.20;99.90;;;;;;5082783;28;20047;-80
2021/01/07 02:29:28;;;;;;;22.75;12.05;;;2.20;99.90;;;;;;5077153;28;20494;-81
2021/01/07 02:31:54;;;;;;;19.45;10.98;;;2.10;99.90;;;;;;5071938;28;20052;-81
2021/01/07 02:34:20;;;;;;;20.55;10.88;;;2.10;99.90;;;;;;5087143;28;20036;-81
2021/01/07 02:36:46;;;;;;;22.27;11.23;;;2.10;99.90;;;;;;5062154;28;20059;-81
2021/01/07 02:39:13;;;;;;;22.15;10.88;;;2.10;99.90;;;;;;5071194;28;20036;-81
2021/01/07 02:41:39;;;;;;;22.48;12.00;;;2.10;99.90;;;;;;5073673;28;20025;-81
2021/01/07 02:44:08;;;;;;;22.13;11.52;;;2.00;99.90;;;;;;5087369;28;20052;-81
2021/01/07 02:46:34;;;;;;;19.33;11.13;;;2.10;99.90;;;;;;5071727;28;20036;-81
2021/01/07 02:49:00;;;;;;;19.15;10.60;;;2.10;99.90;;;;;;5088669;28;20044;-81
2021/01/07 02:51:27;;;;;;;19.40;11.02;;;2.10;99.90;;;;;;5071920;28;20393;-81
2021/01/07 02:53:53;;;;;;;20.20;10.45;;;2.00;99.90;;;;;;5088537;28;20032;-80
2021/01/07 02:56:19;;;;;;;22.48;11.52;;;2.10;99.90;;;;;;5074849;28;20397;-81
2021/01/07 02:58:45;;;;;;;22.08;11.10;;;2.10;99.90;;;;;;5067406;28;20043;-81
2021/01/07 03:01:11;;;;;;;19.30;11.52;;;2.10;99.90;;;;;;5079055;28;20045;-80
2021/01/07 03:03:38;;;;;;;23.23;10.25;;;2.00;99.90;;;;;;5080739;28;20662;-81
2021/01/07 03:06:04;;;;;;;22.30;11.85;;;2.00;99.90;;;;;;5072415;28;20036;-81
2021/01/07 03:08:30;;;;;;;19.55;10.93;;;2.10;99.90;;;;;;5081612;28;20040;-81
2021/01/07 03:10:57;;;;;;;20.75;10.07;;;2.10;99.90;;;;;;5086301;28;20480;-81
2021/01/07 03:13:23;;;;;;;19.38;10.40;;;2.10;99.90;;;;;;5073263;28;20031;-80
2021/01/07 03:15:49;;;;;;;20.15;10.15;;;2.00;99.90;;;;;;5071845;28;20048;-81
2021/01/07 03:18:15;;;;;;;18.67;9.98;;;2.00;99.90;;;;;;5073526;28;20032;-81
2021/01/07 03:20:41;;;;;;;15.70;8.75;;;2.00;99.90;;;;;;5083491;28;20466;-81
2021/01/07 03:23:08;;;;;;;17.38;9.45;;;1.90;99.90;;;;;;5071647;28;20044;-81
2021/01/07 03:25:34;;;;;;;21.55;10.48;;;1.80;99.90;;;;;;5071558;28;20055;-81
2021/01/07 03:28:00;;;;;;;20.70;10.00;;;1.80;99.90;;;;;;5075646;28;20039;-81
2021/01/07 03:30:26;;;;;;;18.58;10.35;;;1.90;99.90;;;;;;5086914;28;20473;-82
2021/01/07 03:32:53;;;;;;;21.02;11.50;;;1.90;99.90;;;;;;5078231;28;20036;-81
2021/01/07 03:35:19;;;;;;;20.55;10.70;;;1.90;99.90;;;;;;5072402;28;20032;-82
2021/01/07 03:37:45;;;;;;;20.08;10.10;;;1.90;99.90;;;;;;5071896;28;20039;-81
2021/01/07 03:40:12;;;;;;;19.52;10.55;;;1.80;99.90;;;;;;5070346;28;20048;-81
2021/01/07 03:42:38;;;;;;;20.23;9.68;;;1.80;99.90;;;;;;5072491;28;20051;-81
2021/01/07 03:45:05;;;;;;;20.35;11.02;;;1.80;99.90;;;;;;5074201;28;21034;-81
2021/01/07 03:47:31;;;;;;;19.45;10.02;;;1.80;99.90;;;;;;5079909;28;20496;-80
2021/01/07 03:49:57;;;;;;;21.45;11.00;;;1.90;99.90;;;;;;5059164;28;20048;-81
2021/01/07 03:52:23;;;;;;;20.55;10.63;;;1.90;99.90;;;;;;5071821;28;20458;-81
2021/01/07 03:54:49;;;;;;;22.55;10.95;;;1.80;99.90;;;;;;5072763;28;20478;-81
2021/01/07 03:57:16;;;;;;;21.83;10.63;;;1.80;99.90;;;;;;5073239;28;20055;-81
2021/01/07 03:59:42;;;;;;;27.27;14.25;;;1.80;99.90;;;;;;5070573;28;20036;-81
2021/01/07 04:02:08;;;;;;;30.52;13.77;;;1.90;99.90;;;;;;5089867;28;20040;-80
2021/01/07 04:04:34;;;;;;;26.40;13.93;;;1.80;99.90;;;;;;5071293;28;20040;-82
2021/01/07 04:07:00;;;;;;;26.10;14.02;;;1.90;99.90;;;;;;5088212;28;20450;-81
2021/01/07 04:09:27;;;;;;;27.45;13.40;;;1.80;99.90;;;;;;5070886;28;20031;-81
2021/01/07 04:11:53;;;;;;;28.40;12.68;;;1.90;99.90;;;;;;5071730;28;20485;-81
2021/01/07 04:14:19;;;;;;;26.92;13.20;;;1.90;99.90;;;;;;5073362;28;20508;-81
2021/01/07 04:16:45;;;;;;;20.58;11.75;;;1.90;99.90;;;;;;5073221;28;20401;-81
2021/01/07 04:19:11;;;;;;;20.48;11.13;;;1.90;99.90;;;;;;5088222;28;20036;-81
2021/01/07 04:21:45;;;;;;;19.63;10.60;;;1.90;99.90;;;;;;5090752;28;20036;-81
2021/01/07 04:24:15;;;;;;;21.67;9.80;;;1.80;99.90;;;;;;5086386;28;20036;-81
2021/01/07 04:26:45;;;;;;;17.07;9.33;;;1.80;99.90;;;;;;5059935;28;20040;-81
2021/01/07 04:29:12;;;;;;;19.88;10.88;;;1.70;99.90;;;;;;5083720;28;20035;-80
2021/01/07 04:31:39;;;;;;;25.92;11.85;;;1.80;99.90;;;;;;5081943;28;20036;-80
2021/01/07 04:34:06;;;;;;;21.70;10.85;;;1.70;99.90;;;;;;5072715;28;20056;-81
2021/01/07 04:36:32;;;;;;;21.08;11.55;;;1.70;99.90;;;;;;5053320;28;20053;-80
2021/01/07 04:38:59;;;;;;;18.83;12.13;;;1.70;99.90;;;;;;5051837;28;20048;-81
2021/01/07 04:41:25;;;;;;;23.30;12.00;;;1.70;99.90;;;;;;5069205;28;20474;-81
2021/01/07 04:44:01;;;;;;;24.20;12.00;;;1.70;99.90;;;;;;5058951;28;20036;-80
2021/01/07 04:46:27;;;;;;;25.27;12.48;;;1.70;99.90;;;;;;5062281;28;20033;-81
2021/01/07 04:48:54;;;;;;;22.35;11.93;;;1.70;99.90;;;;;;5056449;28;20040;-81
2021/01/07 04:51:20;;;;;;;23.67;11.50;;;1.70;99.90;;;;;;5060726;28;20024;-81
2021/01/07 04:53:48;;;;;;;22.42;11.27;;;1.70;99.90;;;;;;5047741;28;20466;-80
2021/01/07 04:56:14;;;;;;;23.25;12.32;;;1.70;99.90;;;;;;5053135;28;20056;-81
2021/01/07 04:58:41;;;;;;;25.98;13.02;;;1.70;99.90;;;;;;5065576;28;20063;-80
2021/01/07 05:01:07;;;;;;;20.63;11.18;;;1.70;99.90;;;;;;5059115;28;20041;-80
2021/01/07 05:03:34;;;;;;;21.02;12.25;;;1.70;99.90;;;;;;5050801;28;20051;-80
2021/01/07 05:06:01;;;;;;;21.10;11.68;;;1.70;99.90;;;;;;5062399;28;20033;-81
2021/01/07 05:08:28;;;;;;;22.85;11.65;;;1.70;99.90;;;;;;5036946;28;20045;-81
2021/01/07 05:10:56;;;;;;;21.95;11.13;;;1.70;99.90;;;;;;5036666;28;20394;-80
2021/01/07 05:13:23;;;;;;;21.38;10.02;;;1.70;99.90;;;;;;5054687;28;20033;-82
2021/01/07 05:15:50;;;;;;;19.80;9.88;;;1.70;99.90;;;;;;5037286;28;20044;-79
2021/01/07 05:18:16;;;;;;;19.45;10.05;;;1.60;99.90;;;;;;5045971;28;20033;-79
2021/01/07 05:20:43;;;;;;;23.42;11.27;;;1.60;99.90;;;;;;5073436;28;20025;-81
2021/01/07 05:23:10;;;;;;;19.48;11.57;;;1.50;99.90;;;;;;5055614;28;20047;-81
2021/01/07 05:25:42;;;;;;;25.73;12.05;;;1.50;99.90;;;;;;5028046;28;20044;-80
2021/01/07 05:28:10;;;;;;;20.67;12.10;;;1.50;99.90;;;;;;5054057;28;20024;-80
2021/01/07 05:30:37;;;;;;;23.23;11.52;;;1.50;99.90;;;;;;5051681;28;20033;-81
2021/01/07 05:33:06;;;;;;;18.23;10.77;;;1.50;99.90;;;;;;5031845;28;20402;-81
2021/01/07 05:35:33;;;;;;;22.63;11.02;;;1.60;99.90;;;;;;5037406;28;20502;-81
2021/01/07 05:38:02;;;;;;;24.70;12.65;;;1.50;99.90;;;;;;5055207;28;20390;-80
2021/01/07 05:40:29;;;;;;;19.98;10.73;;;1.50;99.90;;;;;;5073350;28;20044;-81
2021/01/07 05:43:01;;;;;;;21.70;11.85;;;1.50;99.90;;;;;;5075745;28;20028;-80
2021/01/07 05:45:35;;;;;;;23.85;12.07;;;1.50;99.90;;;;;;5056607;28;20404;-81
2021/01/07 05:48:03;;;;;;;22.63;12.65;;;1.50;99.90;;;;;;5087555;28;20035;-81
2021/01/07 05:50:35;;;;;;;23.08;12.35;;;1.50;99.90;;;;;;5072897;28;20036;-80
2021/01/07 05:53:02;;;;;;;23.35;12.32;;;1.50;99.90;;;;;;5082709;28;20039;-80
2021/01/07 05:55:29;;;;;;;22.83;12.15;;;1.50;99.90;;;;;;5092054;28;20040;-80
2021/01/07 05:58:00;;;;;;;28.77;16.02;;;1.50;99.90;;;;;;5086939;28;20386;-80
2021/01/07 06:00:33;;;;;;;35.33;18.58;;;1.50;99.90;;;;;;5078905;28;20033;-81
2021/01/07 06:03:01;;;;;;;25.90;15.05;;;1.50;99.90;;;;;;5081362;28;20032;-80
2021/01/07 06:05:28;;;;;;;28.80;15.30;;;1.60;99.90;;;;;;5075210;28;20032;-87
2021/01/07 06:07:56;;;;;;;28.73;14.45;;;1.60;99.90;;;;;;5056337;28;20049;-80
2021/01/07 06:10:24;;;;;;;36.60;20.10;;;1.60;99.90;;;;;;5074411;28;20375;-82
2021/01/07 06:12:51;;;;;;;25.85;14.77;;;1.60;99.90;;;;;;5073463;28;20024;-80
2021/01/07 06:15:20;;;;;;;24.00;13.38;;;1.60;99.90;;;;;;5075654;28;20402;-80
2021/01/07 06:17:47;;;;;;;23.45;11.68;;;1.60;99.90;;;;;;5087440;28;20465;-80
2021/01/07 06:20:21;;;;;;;22.95;12.07;;;1.50;99.90;;;;;;5075507;28;20395;-82
2021/01/07 06:22:52;;;;;;;22.75;11.80;;;1.50;99.90;;;;;;5074861;28;20358;-82
2021/01/07 06:25:21;;;;;;;24.42;13.00;;;1.50;99.90;;;;;;5074852;28;20044;-82
2021/01/07 06:27:49;;;;;;;20.30;11.40;;;1.50;99.90;;;;;;5074114;28;20051;-81
2021/01/07 06:30:15;;;;;;;25.27;14.30;;;1.50;99.90;;;;;;5074053;28;20474;-82
2021/01/07 06:32:46;;;;;;;22.75;11.90;;;1.50;99.90;;;;;;5072294;28;20052;-81
2021/01/07 06:35:17;;;;;;;21.50;12.73;;;1.50;99.90;;;;;;5073992;28;20095;-81
2021/01/07 06:37:43;;;;;;;26.85;14.45;;;1.50;99.90;;;;;;5073379;28;20107;-82
2021/01/07 06:40:11;;;;;;;23.80;13.15;;;1.40;99.90;;;;;;5071985;28;20060;-82
2021/01/07 06:42:43;;;;;;;33.17;15.20;;;1.50;99.90;;;;;;5073356;28;20040;-82
2021/01/07 06:45:10;;;;;;;;;;;1.50;99.90;;;;;;5070694;28;20478;-82
2021/01/07 06:47:38;;;;;;;27.42;15.50;;;1.50;99.90;;;;;;5071180;28;19909;-82
2021/01/07 06:50:05;;;;;;;28.40;14.48;;;1.70;99.90;;;;;;5072310;28;20488;-82
2021/01/07 06:52:43;;;;;;;28.88;14.65;;;1.80;99.90;;;;;;5073444;28;20029;-82
2021/01/07 06:55:12;;;;;;;27.55;13.23;;;1.90;99.90;;;;;;5073685;28;20036;-82
2021/01/07 06:57:47;;;;;;;21.92;11.48;;;1.90;99.90;;;;;;5073427;28;20047;-83
2021/01/07 07:00:16;;;;;;;22.90;12.77;;;1.90;99.90;;;;;;5073516;28;20028;-82
2021/01/07 07:02:59;;;;;;;26.40;13.07;;;2.00;99.90;;;;;;5071959;28;20048;-82
2021/01/07 07:05:30;;;;;;;24.60;12.60;;;2.00;99.90;;;;;;5073020;28;20039;-82
2021/01/07 07:08:02;;;;;;;;;;;2.10;99.90;;;;;;5077501;28;20036;-82
2021/01/07 07:10:34;;;;;;;24.30;12.68;;;2.10;99.90;;;;;;5089666;28;19908;-83
2021/01/07 07:13:21;;;;;;;24.60;13.48;;;2.10;99.90;;;;;;5073265;28;20051;-80
2021/01/07 07:15:49;;;;;;;26.98;13.55;;;2.10;99.90;;;;;;5061213;28;20055;-82
2021/01/07 07:18:35;;;;;;;25.80;13.32;;;2.10;99.90;;;;;;5074375;28;20028;-82
2021/01/07 07:21:20;;;;;;;26.92;14.05;;;2.00;99.90;;;;;;5080503;28;20389;-82
2021/01/07 07:23:47;;;;;;;27.40;14.50;;;2.10;99.90;;;;;;5083059;28;20047;-81
2021/01/07 07:26:30;;;;;;;27.13;14.05;;;2.10;99.90;;;;;;5073705;28;20024;-81
2021/01/07 07:28:57;;;;;;;21.02;12.63;;;2.10;99.90;;;;;;5076710;28;20041;-81
2021/01/07 07:31:43;;;;;;;29.83;14.60;;;2.10;99.90;;;;;;5072967;28;20484;-81
2021/01/07 07:34:10;;;;;;;111.75;43.33;;;2.10;99.90;;;;;;5073129;28;20032;-81
2021/01/07 07:36:37;;;;;;;51.38;25.33;;;2.10;99.90;;;;;;5072868;28;20469;-81
2021/01/07 07:39:05;;;;;;;65.88;29.10;;;2.00;99.90;;;;;;5071315;28;20488;-81
2021/01/07 07:41:39;;;;;;;71.20;32.17;;;2.00;99.90;;;;;;5040613;28;20024;-81
2021/01/07 07:44:06;;;;;;;46.20;22.67;;;2.00;99.90;;;;;;5068311;28;20033;-81
2021/01/07 07:46:33;;;;;;;29.45;15.65;;;2.00;99.90;;;;;;5052706;28;20033;-81
2021/01/07 07:49:00;;;;;;;25.35;13.13;;;2.00;99.90;;;;;;5053014;28;20037;-81
2021/01/07 07:51:27;;;;;;;26.85;13.07;;;2.10;99.90;;;;;;5034269;28;20041;-81
2021/01/07 07:54:07;;;;;;;33.78;16.13;;;2.20;99.90;;;;;;5057024;28;20036;-82
2021/01/07 07:56:34;;;;;;;84.53;34.92;;;2.20;99.90;;;;;;5051317;28;20064;-82
2021/01/07 07:59:03;;;;;;;50.60;24.52;;;2.20;99.90;;;;;;5064888;28;20035;-81
2021/01/07 08:01:36;;;;;;;34.22;18.00;;;2.20;99.90;;;;;;5035060;28;20045;-82
2021/01/07 08:04:03;;;;;;;287.50;117.07;;;2.20;99.90;;;;;;5035624;28;20402;-82
2021/01/07 08:06:29;;;;;;;146.52;61.58;;;2.20;99.90;;;;;;5052781;28;20041;-82
2021/01/07 08:09:04;;;;;;;38.75;19.55;;;2.20;99.90;;;;;;5053082;28;20025;-81
2021/01/07 08:11:30;;;;;;;117.10;53.25;;;2.30;99.90;;;;;;5054875;28;20029;-81
2021/01/07 08:13:58;;;;;;;38.85;20.05;;;2.30;99.90;;;;;;5063654;28;20040;-82
2021/01/07 08:16:26;;;;;;;89.97;43.97;;;2.30;99.90;;;;;;5062652;28;20401;-81
2021/01/07 08:18:52;;;;;;;36.72;19.70;;;2.30;99.90;;;;;;5052425;28;20025;-81
2021/01/07 08:21:18;;;;;;;27.38;14.80;;;2.30;99.90;;;;;;5051231;28;20029;-82
2021/01/07 08:23:45;;;;;;;55.15;28.13;;;2.40;99.90;;;;;;5066745;28;20037;-82
2021/01/07 08:26:27;;;;;;;35.22;18.40;;;2.40;99.90;;;;;;5060604;28;20402;-83
2021/01/07 08:28:54;;;;;;;28.85;16.13;;;2.40;99.90;;;;;;5056612;28;20035;-82
2021/01/07 08:31:26;;;;;;;30.25;16.23;;;2.40;99.90;;;;;;5055507;28;20040;-82
2021/01/07 08:33:52;;;;;;;48.72;27.52;;;2.50;99.90;;;;;;5056811;28;20029;-83
2021/01/07 08:36:21;;;;;;;30.55;16.27;;;2.40;99.90;;;;;;5056842;28;20044;-83
2021/01/07 08:38:52;;;;;;;30.17;17.05;;;2.50;99.90;;;;;;5055794;28;20025;-82
2021/01/07 08:41:21;;;;;;;40.65;22.50;;;2.60;99.90;;;;;;5075538;28;20491;-82
2021/01/07 08:43:52;;;;;;;23.73;14.43;;;2.60;99.90;;;;;;5075855;28;20035;-82
2021/01/07 08:46:27;;;;;;;27.35;16.08;;;2.70;99.90;;;;;;5059440;28;20043;-84
2021/01/07 08:49:07;;;;;;;67.45;33.13;;;2.80;99.90;;;;;;5075637;28;20397;-83
2021/01/07 08:51:41;;;;;;;27.30;14.68;;;2.80;99.90;;;;;;5075081;28;20032;-82
2021/01/07 08:54:15;;;;;;;25.55;12.07;;;2.80;99.90;;;;;;5076077;28;20025;-82
2021/01/07 08:56:43;;;;;;;24.88;13.35;;;2.80;99.90;;;;;;5075775;28;20044;-82
2021/01/07 08:59:32;;;;;;;41.70;22.05;;;2.80;99.90;;;;;;5057614;28;20036;-82
2021/01/07 09:02:07;;;;;;;26.95;14.50;;;2.80;99.90;;;;;;5038451;28;20049;-83
2021/01/07 09:04:34;;;;;;;22.48;13.35;;;2.80;99.90;;;;;;5073193;28;20036;-82
2021/01/07 09:07:05;;;;;;;23.90;13.18;;;2.90;99.90;;;;;;5075415;28;20035;-82
2021/01/07 09:09:54;;;;;;;20.93;12.90;;;2.80;99.90;;;;;;5067078;28;20480;-82
2021/01/07 09:12:33;;;;;;;24.08;13.07;;;2.80;99.90;;;;;;5075055;28;20290;-82
2021/01/07 09:15:10;;;;;;;23.55;12.60;;;2.90;99.90;;;;;;5056864;28;20040;-83
2021/01/07 09:17:47;;;;;;;25.20;13.23;;;2.90;99.90;;;;;;5057845;28;20047;-83
2021/01/07 09:20:22;;;;;;;24.52;12.93;;;2.90;99.90;;;;;;5076124;28;20049;-82
2021/01/07 09:22:49;;;;;;;25.00;13.55;;;2.90;99.90;;;;;;5096774;28;20046;-82
2021/01/07 09:25:17;;;;;;;23.33;12.95;;;2.80;99.90;;;;;;5080519;28;20040;-83
2021/01/07 09:27:49;;;;;;;28.52;14.32;;;2.90;99.90;;;;;;5074416;28;20400;-82
2021/01/07 09:30:16;;;;;;;23.17;13.32;;;2.90;99.90;;;;;;5057028;28;20489;-83
2021/01/07 09:32:43;;;;;;;28.83;15.10;;;2.90;99.90;;;;;;5057687;28;20476;-82
2021/01/07 09:35:11;;;;;;;22.60;13.43;;;2.90;99.90;;;;;;5075260;28;20029;-82
2021/01/07 09:37:37;;;;;;;28.90;17.10;;;2.90;99.90;;;;;;5074867;28;20045;-82
2021/01/07 09:40:05;;;;;;;25.85;14.40;;;2.90;99.90;;;;;;5073939;28;20051;-83
2021/01/07 09:42:32;;;;;;;25.52;14.68;;;2.90;99.90;;;;;;5079692;28;20389;-83
2021/01/07 09:45:06;;;;;;;27.73;12.45;;;2.90;99.90;;;;;;5073845;28;20067;-83
2021/01/07 09:47:34;;;;;;;24.92;12.68;;;2.90;99.90;;;;;;5072569;28;20441;-83
2021/01/07 09:50:01;;;;;;;20.48;12.00;;;2.80;99.90;;;;;;5075932;28;20453;-82
2021/01/07 09:52:27;;;;;;;21.17;11.23;;;2.90;99.90;;;;;;5075070;28;20386;-82
2021/01/07 09:54:53;;;;;;;17.83;9.82;;;2.80;99.90;;;;;;5076085;28;20116;-82
2021/01/07 09:57:19;;;;;;;19.02;10.68;;;2.90;99.90;;;;;;5063096;28;20049;-81
2021/01/07 09:59:46;;;;;;;22.10;11.27;;;2.90;99.90;;;;;;5074643;28;20037;-82
2021/01/07 10:02:13;;;;;;;20.10;10.98;;;2.80;99.90;;;;;;5074080;28;20442;-82
2021/01/07 10:04:41;;;;;;;20.92;11.10;;;2.90;99.90;;;;;;5075064;28;20391;-81
2021/01/07 10:07:08;;;;;;;23.73;12.95;;;2.90;99.90;;;;;;5074897;28;20040;-81
2021/01/07 10:09:35;;;;;;;24.92;13.27;;;2.90;99.90;;;;;;5083298;28;20051;-82
2021/01/07 10:12:02;;;;;;;26.15;13.50;;;2.90;99.90;;;;;;5083915;28;20032;-82
2021/01/07 10:14:30;;;;;;;23.10;13.02;;;3.00;99.90;;;;;;5072637;28;20032;-81
2021/01/07 10:16:59;;;;;;;24.38;12.88;;;3.00;99.90;;;;;;5074718;28;20063;-82
2021/01/07 10:19:30;;;;;;;36.40;17.35;;;3.00;99.90;;;;;;5074716;28;20024;-81
2021/01/07 10:22:10;;;;;;;34.78;17.65;;;3.10;99.90;;;;;;5073606;28;20385;-81
2021/01/07 10:24:45;;;;;;;29.80;15.95;;;3.20;99.90;;;;;;5073372;28;20028;-81
2021/01/07 10:27:14;;;;;;;20.98;11.95;;;3.20;99.90;;;;;;5073417;28;20040;-83
2021/01/07 10:29:42;;;;;;;23.13;13.38;;;3.30;99.90;;;;;;5074012;28;20033;-81
2021/01/07 10:32:16;;;;;;;24.17;14.10;;;3.30;99.90;;;;;;5074392;28;20029;-81
2021/01/07 10:34:45;;;;;;;19.52;9.93;;;3.30;99.90;;;;;;5071961;28;20036;-81
2021/01/07 10:37:13;;;;;;;17.90;9.90;;;3.20;99.90;;;;;;5072614;28;20040;-81
2021/01/07 10:39:42;;;;;;;17.27;9.15;;;3.30;99.90;;;;;;5068567;28;20045;-81
2021/01/07 10:42:13;;;;;;;23.58;12.75;;;3.30;99.90;;;;;;5054738;28;20461;-82
2021/01/07 10:44:41;;;;;;;19.02;10.68;;;3.30;99.90;;;;;;5044148;28;20063;-81
2021/01/07 10:47:09;;;;;;;19.25;10.98;;;3.30;99.90;;;;;;5053417;28;20036;-80
2021/01/07 10:49:37;;;;;;;25.67;12.93;;;3.30;99.90;;;;;;5073373;28;20404;-81
2021/01/07 10:52:12;;;;;;;24.65;13.57;;;3.30;99.90;;;;;;5061384;28;20025;-81
2021/01/07 10:55:06;;;;;;;21.20;12.82;;;3.40;99.90;;;;;;5035476;28;20040;-81
2021/01/07 10:57:48;;;;;;;22.98;14.00;;;3.30;99.90;;;;;;5054195;28;20359;-81
2021/01/07 11:00:42;;;;;;;23.30;12.15;;;3.30;99.90;;;;;;5055974;28;20040;-82
2021/01/07 11:03:14;;;;;;;21.90;12.00;;;3.30;99.90;;;;;;5065466;28;20032;-82
2021/01/07 11:05:44;;;;;;;19.70;12.07;;;3.30;99.90;;;;;;5061424;28;20053;-82
2021/01/07 11:08:20;;;;;;;17.70;10.15;;;3.40;99.90;;;;;;5066007;28;20493;-82
2021/01/07 11:10:51;;;;;;;21.38;11.80;;;3.40;99.90;;;;;;5054308;28;20028;-83
2021/01/07 11:13:36;;;;;;;21.10;10.82;;;3.50;99.90;;;;;;5035751;28;20048;-82
2021/01/07 11:16:03;;;;;;;20.95;11.43;;;3.50;99.90;;;;;;5053721;28;20037;-82
2021/01/07 11:18:33;;;;;;;22.25;12.38;;;3.50;99.90;;;;;;5036009;28;20032;-81
2021/01/07 11:21:04;;;;;;;19.85;11.40;;;3.60;99.90;;;;;;5039001;28;20047;-82
2021/01/07 11:23:31;;;;;;;21.83;11.60;;;3.50;99.90;;;;;;5054661;28;20048;-83
2021/01/07 11:25:58;;;;;;;22.00;10.82;;;3.60;99.90;;;;;;5071340;28;20033;-83
2021/01/07 11:28:26;;;;;;;22.30;12.43;;;3.50;99.90;;;;;;5053957;28;20041;-82
2021/01/07 11:30:53;;;;;;;19.90;10.65;;;3.50;99.90;;;;;;5034527;28;20040;-82
2021/01/07 11:33:20;;;;;;;21.38;10.68;;;3.60;99.90;;;;;;5059099;28;20025;-82
2021/01/07 11:35:47;;;;;;;21.30;11.68;;;3.50;99.90;;;;;;5066846;28;20052;-82
2021/01/07 11:38:25;;;;;;;20.40;10.18;;;3.60;99.90;;;;;;5055923;28;20389;-81
2021/01/07 11:40:51;;;;;;;19.77;10.93;;;3.50;99.90;;;;;;5071036;28;20044;-84
2021/01/07 11:43:34;;;;;;;20.25;10.48;;;3.50;99.90;;;;;;5042952;28;20040;-82
2021/01/07 11:46:02;;;;;;;19.40;10.15;;;3.50;99.90;;;;;;5058541;28;20033;-82
2021/01/07 11:48:31;;;;;;;20.55;10.57;;;3.50;99.90;;;;;;5053481;28;20044;-82
2021/01/07 11:51:17;;;;;;;19.13;9.90;;;3.60;99.90;;;;;;5052779;28;20029;-82
2021/01/07 11:53:44;;;;;;;18.67;9.93;;;3.70;99.90;;;;;;5061998;28;20041;-82
2021/01/07 11:56:11;;;;;;;22.15;10.98;;;3.70;99.90;;;;;;5048244;28;20040;-81
2021/01/07 11:58:41;;;;;;;24.08;10.75;;;3.80;99.90;;;;;;5062182;28;20028;-82
2021/01/07 12:01:09;;;;;;;20.05;10.80;;;3.80;99.90;;;;;;5062976;28;20029;-82
2021/01/07 12:03:35;;;;;;;20.30;11.80;;;3.70;99.90;;;;;;5056666;28;20089;-82
2021/01/07 12:06:04;;;;;;;29.90;15.15;;;3.70;99.90;;;;;;5057700;28;20354;-83
2021/01/07 12:08:45;;;;;;;27.55;13.35;;;3.70;99.90;;;;;;5057749;28;20118;-82
2021/01/07 12:11:21;;;;;;;90.88;38.55;;;3.70;99.90;;;;;;5044231;28;20040;-82
2021/01/07 12:13:53;;;;;;;42.63;20.67;;;3.80;99.90;;;;;;5036453;28;20040;-82
2021/01/07 12:16:30;;;;;;;24.73;12.73;;;3.80;99.90;;;;;;5053227;28;20033;-82
2021/01/07 12:18:57;;;;;;;20.50;11.52;;;3.80;99.90;;;;;;5054299;28;20029;-83
2021/01/07 12:21:25;;;;;;;40.85;21.52;;;3.80;99.90;;;;;;5056440;28;20029;-82
2021/01/07 12:23:54;;;;;;;20.40;11.27;;;3.70;99.90;;;;;;5042799;28;20462;-83
2021/01/07 12:26:20;;;;;;;14.65;8.02;;;3.70;99.90;;;;;;5039610;28;20045;-84
2021/01/07 12:28:52;;;;;;;19.67;9.95;;;3.70;99.90;;;;;;5064656;28;20092;-82
2021/01/07 12:31:20;;;;;;;16.17;8.05;;;3.70;99.90;;;;;;5055096;28;20033;-82
2021/01/07 12:34:21;;;;;;;14.40;8.48;;;3.70;99.90;;;;;;5063127;28;20075;-83
2021/01/07 12:37:12;;;;;;;19.05;10.40;;;3.70;99.90;;;;;;5055335;28;20040;-82
2021/01/07 12:40:05;;;;;;;34.15;18.30;;;3.70;99.90;;;;;;5041721;28;20036;-82
2021/01/07 12:42:44;;;;;;;19.98;10.27;;;3.70;99.90;;;;;;5072625;28;20474;-83
2021/01/07 12:45:16;;;;;;;16.35;8.77;;;3.80;99.90;;;;;;5087817;28;20481;-84
2021/01/07 12:47:42;;;;;;;12.98;7.28;;;3.80;99.90;;;;;;5072639;28;20055;-82
2021/01/07 12:50:11;;;;;;;14.88;8.85;;;3.80;99.90;;;;;;5073042;28;20033;-82